createdAt,value
2024-02-24T00:00:07.142Z,94.22
2024-02-24T00:02:43.851Z,94.03
2024-02-24T00:05:11.748Z,94.34
2024-02-24T00:07:39.453Z,94.47
2024-02-24T00:10:08.249Z,94.51
2024-02-24T00:12:35.904Z,94.42
2024-02-24T00:15:04.025Z,94.54
2024-02-24T00:17:31.952Z,94.66
2024-02-24T00:19:59.642Z,94.65
2024-02-24T00:22:27.414Z,94.63
2024-02-24T00:24:55.266Z,94.55
2024-02-24T00:27:22.853Z,94.73
2024-02-24T00:29:50.610Z,94.55
2024-02-24T00:32:18.342Z,94.89
2024-02-24T00:34:46.040Z,94.82
2024-02-24T00:37:13.647Z,94.89
2024-02-24T00:39:42.615Z,94.86
2024-02-24T00:42:10.217Z,94.88
2024-02-24T00:44:38.002Z,95.01
2024-02-24T00:47:06.356Z,95.06
2024-02-24T00:49:33.928Z,95.02
2024-02-24T00:52:01.456Z,94.91
2024-02-24T00:54:29.630Z,95.51
2024-02-24T00:56:57.076Z,95.46
2024-02-24T00:59:24.722Z,95.74
2024-02-24T01:01:52.497Z,95.61
2024-02-24T01:04:23.381Z,95.87
2024-02-24T01:06:53.326Z,96.05
2024-02-24T01:09:21.822Z,96.09
2024-02-24T01:11:49.554Z,96.06
2024-02-24T01:14:17.653Z,96.32
2024-02-24T01:16:45.714Z,96.30
2024-02-24T01:19:13.623Z,96.38
2024-02-24T01:21:44.714Z,96.38
2024-02-24T01:24:15.334Z,96.46
2024-02-24T01:26:43.037Z,96.49
2024-02-24T01:29:11.718Z,96.36
2024-02-24T01:31:40.990Z,96.22
2024-02-24T01:34:09.040Z,96.76
2024-02-24T01:36:38.021Z,96.43
2024-02-24T01:39:05.712Z,96.89
2024-02-24T01:41:33.455Z,97.11
2024-02-24T01:44:01.180Z,97.42
2024-02-24T01:46:29.688Z,97.50
2024-02-24T01:48:57.276Z,97.51
2024-02-24T01:51:25.317Z,97.61
2024-02-24T01:53:54.276Z,97.63
2024-02-24T01:56:25.725Z,97.70
2024-02-24T01:58:53.655Z,97.88
2024-02-24T02:01:21.842Z,97.98
2024-02-24T02:03:53.390Z,97.90
2024-02-24T02:06:22.738Z,97.88
2024-02-24T02:08:50.692Z,97.82
2024-02-24T02:11:18.488Z,97.83
2024-02-24T02:13:46.108Z,97.92
2024-02-24T02:16:14.286Z,97.98
2024-02-24T02:18:41.941Z,98.08
2024-02-24T02:21:10.994Z,98.03
2024-02-24T02:23:38.840Z,98.18
2024-02-24T02:26:06.467Z,98.04
2024-02-24T02:28:34.037Z,98.07
2024-02-24T02:31:02.724Z,98.26
2024-02-24T02:33:30.497Z,98.35
2024-02-24T02:35:58.095Z,98.54
2024-02-24T02:38:25.909Z,98.42
2024-02-24T02:40:53.493Z,98.59
2024-02-24T02:43:21.021Z,98.70
2024-02-24T02:45:48.676Z,98.41
2024-02-24T02:48:16.373Z,98.54
2024-02-24T02:50:44.306Z,98.74
2024-02-24T02:53:12.207Z,98.73
2024-02-24T02:55:39.844Z,98.91
2024-02-24T02:58:09.075Z,98.72
2024-02-24T03:00:37.729Z,99.17
2024-02-24T03:03:05.470Z,98.90
2024-02-24T03:05:33.054Z,99.03
2024-02-24T03:08:06.913Z,98.83
2024-02-24T03:10:35.283Z,98.91
2024-02-24T03:13:02.942Z,98.94
2024-02-24T03:15:30.707Z,99.01
2024-02-24T03:17:58.369Z,98.87
2024-02-24T03:20:32.070Z,98.91
2024-02-24T03:22:59.585Z,98.67
2024-02-24T03:25:27.056Z,98.76
2024-02-24T03:27:55.687Z,98.61
2024-02-24T03:30:23.161Z,98.60
2024-02-24T03:32:52.176Z,98.44
2024-02-24T03:35:19.837Z,98.41
2024-02-24T03:37:49.141Z,98.44
2024-02-24T03:40:18.146Z,98.43
2024-02-24T03:42:45.698Z,98.69
2024-02-24T03:45:13.344Z,98.62
2024-02-24T03:47:40.993Z,98.81
2024-02-24T03:50:09.224Z,98.70
2024-02-24T03:52:37.489Z,98.88
2024-02-24T03:55:05.521Z,99.14
2024-02-24T03:57:33.046Z,98.89
2024-02-24T04:00:00.809Z,99.11
2024-02-24T04:02:28.347Z,99.12
2024-02-24T04:04:55.876Z,99.04
2024-02-24T04:07:23.591Z,99.10
2024-02-24T04:09:51.139Z,99.39
2024-02-24T04:12:18.723Z,99.32
2024-02-24T04:14:46.619Z,99.30
2024-02-24T04:17:14.178Z,99.45
2024-02-24T04:19:41.750Z,99.57
2024-02-24T04:22:09.489Z,99.66
2024-02-24T04:24:37.020Z,99.67
2024-02-24T04:27:04.838Z,99.68
2024-02-24T04:29:32.749Z,99.65
2024-02-24T04:32:00.554Z,99.79
2024-02-24T04:34:28.141Z,99.85
2024-02-24T04:36:55.829Z,99.97
2024-02-24T04:39:23.923Z,99.82
2024-02-24T04:41:51.786Z,99.91
2024-02-24T04:44:19.851Z,99.79
2024-02-24T04:46:47.497Z,99.80
2024-02-24T04:49:15.043Z,99.52
2024-02-24T04:51:42.740Z,99.76
2024-02-24T04:54:10.339Z,99.81
2024-02-24T04:56:38.269Z,99.91
2024-02-24T04:59:06.188Z,99.77
2024-02-24T05:01:33.851Z,99.94
2024-02-24T05:04:01.895Z,99.85
2024-02-24T05:06:29.944Z,100.00
2024-02-24T05:08:57.729Z,99.88
2024-02-24T05:11:25.985Z,100.00
2024-02-24T05:13:53.924Z,99.84
2024-02-24T05:16:21.796Z,99.79
2024-02-24T05:18:49.452Z,99.59
2024-02-24T05:21:24.541Z,99.79
2024-02-24T05:23:52.461Z,99.52
2024-02-24T05:26:28.868Z,99.71
2024-02-24T05:28:57.933Z,99.50
2024-02-24T05:31:25.511Z,99.63
2024-02-24T05:33:54.871Z,99.78
2024-02-24T05:36:22.736Z,99.64
2024-02-24T05:38:50.393Z,99.82
2024-02-24T05:41:18.065Z,99.86
2024-02-24T05:43:46.756Z,99.82
2024-02-24T05:46:17.800Z,99.36
2024-02-24T05:48:46.750Z,99.51
2024-02-24T05:51:14.705Z,99.49
2024-02-24T05:53:42.229Z,99.51
2024-02-24T05:56:09.846Z,99.63
2024-02-24T05:58:37.695Z,99.85
2024-02-24T06:01:05.364Z,99.17
2024-02-24T06:03:33.194Z,99.15
2024-02-24T06:06:01.276Z,99.05
2024-02-24T06:08:28.988Z,99.18
2024-02-24T06:10:56.684Z,99.27
2024-02-24T06:13:24.484Z,99.17
2024-02-24T06:15:52.202Z,99.47
2024-02-24T06:18:21.196Z,98.89
2024-02-24T06:20:49.203Z,99.11
2024-02-24T06:23:16.919Z,99.03
2024-02-24T06:25:44.887Z,99.10
2024-02-24T06:28:12.977Z,99.23
2024-02-24T06:30:40.557Z,99.30
2024-02-24T06:33:10.029Z,99.18
2024-02-24T06:35:37.863Z,99.12
2024-02-24T06:38:05.584Z,99.15
2024-02-24T06:40:41.022Z,99.05
2024-02-24T06:43:14.003Z,99.14
2024-02-24T06:45:42.175Z,98.92
2024-02-24T06:48:10.452Z,99.05
2024-02-24T06:50:38.192Z,98.99
2024-02-24T06:53:05.895Z,99.22
2024-02-24T06:55:34.002Z,99.21
2024-02-24T06:58:01.547Z,99.03
2024-02-24T07:00:29.533Z,99.15
2024-02-24T07:02:57.367Z,99.06
2024-02-24T07:05:26.954Z,99.10
2024-02-24T07:07:55.823Z,99.10
2024-02-24T07:10:23.788Z,98.96
2024-02-24T07:12:51.487Z,98.82
2024-02-24T07:15:19.343Z,98.81
2024-02-24T07:17:47.140Z,99.02
2024-02-24T07:20:15.135Z,99.31
2024-02-24T07:22:43.228Z,99.33
2024-02-24T07:25:10.947Z,99.36
2024-02-24T07:27:38.692Z,99.38
2024-02-24T07:30:07.588Z,99.33
2024-02-24T07:32:38.722Z,99.41
2024-02-24T07:35:08.920Z,99.59
2024-02-24T07:37:36.708Z,99.50
2024-02-24T07:40:04.853Z,99.74
2024-02-24T07:42:32.451Z,99.71
2024-02-24T07:45:00.277Z,99.71
2024-02-24T07:47:29.175Z,99.42
2024-02-24T07:49:56.776Z,99.56
2024-02-24T07:52:24.493Z,99.32
2024-02-24T07:54:52.020Z,99.20
2024-02-24T07:57:20.140Z,99.25
2024-02-24T07:59:48.954Z,99.40
2024-02-24T08:02:16.713Z,99.35
2024-02-24T08:04:44.295Z,99.39
2024-02-24T08:07:12.109Z,99.21
2024-02-24T08:09:39.724Z,98.99
2024-02-24T08:12:08.069Z,99.08
2024-02-24T08:14:35.962Z,98.53
2024-02-24T08:17:03.518Z,98.46
2024-02-24T08:19:34.836Z,98.48
2024-02-24T08:22:02.496Z,98.34
2024-02-24T08:24:30.934Z,98.19
2024-02-24T08:26:58.815Z,98.22
2024-02-24T08:29:28.157Z,97.90
2024-02-24T08:31:55.949Z,97.41
2024-02-24T08:34:24.690Z,96.54
2024-02-24T08:36:55.321Z,96.40
2024-02-24T08:39:23.238Z,95.85
2024-02-24T08:41:50.808Z,95.76
2024-02-24T08:44:18.364Z,95.90
2024-02-24T08:46:46.259Z,95.66
2024-02-24T08:49:13.778Z,95.31
2024-02-24T08:51:41.336Z,95.39
2024-02-24T08:54:09.091Z,94.93
2024-02-24T08:56:37.680Z,95.14
2024-02-24T08:59:06.404Z,95.32
2024-02-24T09:01:33.912Z,94.28
2024-02-24T09:04:04.266Z,94.22
2024-02-24T09:06:37.117Z,94.32
2024-02-24T09:09:07.683Z,94.75
2024-02-24T09:11:35.348Z,94.99
2024-02-24T09:14:03.133Z,95.19
2024-02-24T09:16:30.854Z,95.49
2024-02-24T09:18:58.585Z,96.17
2024-02-24T09:21:26.267Z,96.45
2024-02-24T09:23:53.867Z,96.84
2024-02-24T09:26:21.860Z,96.73
2024-02-24T09:28:49.621Z,96.39
2024-02-24T09:31:17.166Z,96.24
2024-02-24T09:33:45.284Z,96.29
2024-02-24T09:36:13.025Z,96.86
2024-02-24T09:38:40.634Z,97.37
2024-02-24T09:41:12.598Z,97.60
2024-02-24T09:43:40.733Z,98.15
2024-02-24T09:46:08.627Z,98.03
2024-02-24T09:48:36.320Z,98.32
2024-02-24T09:51:05.543Z,98.66
2024-02-24T09:53:33.445Z,99.14
2024-02-24T09:56:01.808Z,99.78
2024-02-24T09:58:34.333Z,100.00
2024-02-24T10:01:01.989Z,100.00
2024-02-24T10:03:30.005Z,100.00
2024-02-24T10:05:57.986Z,100.00
2024-02-24T10:08:25.941Z,100.00
2024-02-24T10:10:53.944Z,100.00
2024-02-24T10:13:22.380Z,100.00
2024-02-24T10:15:49.977Z,99.87
2024-02-24T10:18:19.929Z,99.86
2024-02-24T10:20:48.019Z,99.53
2024-02-24T10:23:16.328Z,99.62
2024-02-24T10:25:43.986Z,99.60
2024-02-24T10:28:19.382Z,100.00
2024-02-24T10:30:47.951Z,100.00
2024-02-24T10:33:16.770Z,100.00
2024-02-24T10:35:46.185Z,100.00
2024-02-24T10:38:23.760Z,100.00
2024-02-24T10:41:01.904Z,99.36
2024-02-24T10:43:30.197Z,98.37
2024-02-24T10:45:57.800Z,97.08
2024-02-24T10:48:25.464Z,96.37
2024-02-24T10:50:54.529Z,95.85
2024-02-24T10:53:29.236Z,95.36
2024-02-24T10:56:02.856Z,94.49
2024-02-24T10:58:34.002Z,93.83
2024-02-24T11:01:01.670Z,92.47
2024-02-24T11:03:29.876Z,91.75
2024-02-24T11:05:57.730Z,90.70
2024-02-24T11:08:39.495Z,90.57
2024-02-24T11:11:17.266Z,89.11
2024-02-24T11:13:59.971Z,88.79
2024-02-24T11:16:39.962Z,88.57
2024-02-24T11:19:12.932Z,87.22
2024-02-24T11:22:02.490Z,86.92
2024-02-24T11:24:37.512Z,87.84
2024-02-24T11:27:06.561Z,88.36
2024-02-24T11:29:37.331Z,85.97
2024-02-24T11:32:14.381Z,87.17
2024-02-24T11:34:46.967Z,86.96
2024-02-24T11:37:17.854Z,86.49
2024-02-24T11:39:48.224Z,86.60
2024-02-24T11:42:18.778Z,85.60
2024-02-24T11:44:48.321Z,85.50
2024-02-24T11:47:20.072Z,84.09
2024-02-24T11:49:49.641Z,82.79
2024-02-24T11:52:17.964Z,83.54
2024-02-24T11:54:47.898Z,83.38
2024-02-24T11:57:15.908Z,82.18
2024-02-24T11:59:43.928Z,82.30
2024-02-24T12:02:15.867Z,81.40
2024-02-24T12:04:43.714Z,81.14
2024-02-24T12:07:11.928Z,81.06
2024-02-24T12:09:41.117Z,81.40
2024-02-24T12:12:09.407Z,81.43
2024-02-24T12:14:37.156Z,81.74
2024-02-24T12:17:05.956Z,80.90
2024-02-24T12:19:39.485Z,80.88
2024-02-24T12:22:10.569Z,80.45
2024-02-24T12:24:39.491Z,80.15
2024-02-24T12:27:10.572Z,80.60
2024-02-24T12:29:39.510Z,80.28
2024-02-24T12:32:09.095Z,80.17
2024-02-24T12:34:38.169Z,79.17
2024-02-24T12:37:07.547Z,79.89
2024-02-24T12:39:42.211Z,79.50
2024-02-24T12:42:10.013Z,79.11
2024-02-24T12:44:37.809Z,78.42
2024-02-24T12:47:07.071Z,78.39
2024-02-24T12:49:34.880Z,78.11
2024-02-24T12:52:04.229Z,77.39
2024-02-24T12:54:34.215Z,77.17
2024-02-24T12:57:02.107Z,77.36
2024-02-24T12:59:30.387Z,77.40
2024-02-24T13:01:59.601Z,77.87
2024-02-24T13:04:28.518Z,77.86
2024-02-24T13:06:57.534Z,78.28
2024-02-24T13:09:25.441Z,78.75
2024-02-24T13:11:56.845Z,79.03
2024-02-24T13:14:25.519Z,79.72
2024-02-24T13:16:53.411Z,80.40
2024-02-24T13:19:21.270Z,80.76
2024-02-24T13:21:48.853Z,81.01
2024-02-24T13:24:17.380Z,81.49
2024-02-24T13:26:45.089Z,81.64
2024-02-24T13:29:13.777Z,81.74
2024-02-24T13:31:42.034Z,81.96
2024-02-24T13:34:10.341Z,82.29
2024-02-24T13:36:37.991Z,82.86
2024-02-24T13:39:05.818Z,83.18
2024-02-24T13:41:33.701Z,83.31
2024-02-24T13:44:01.440Z,83.29
2024-02-24T13:46:31.363Z,83.54
2024-02-24T13:49:04.788Z,84.04
2024-02-24T13:51:33.157Z,83.56
2024-02-24T13:54:00.959Z,83.56
2024-02-24T13:56:28.707Z,83.63
2024-02-24T13:58:56.801Z,82.98
2024-02-24T14:01:24.434Z,83.01
2024-02-24T14:03:52.325Z,82.76
2024-02-24T14:06:24.214Z,81.31
2024-02-24T14:08:52.762Z,81.58
2024-02-24T14:11:20.561Z,79.65
2024-02-24T14:13:48.208Z,79.13
2024-02-24T14:16:16.959Z,78.50
2024-02-24T14:18:44.826Z,76.98
2024-02-24T14:21:12.619Z,77.60
2024-02-24T14:23:41.599Z,78.53
2024-02-24T14:26:09.308Z,78.54
2024-02-24T14:28:36.938Z,77.98
2024-02-24T14:31:04.951Z,77.79
2024-02-24T14:33:32.882Z,77.30
2024-02-24T14:36:00.702Z,77.76
2024-02-24T14:38:28.476Z,78.18
2024-02-24T14:41:01.101Z,78.40
2024-02-24T14:43:28.952Z,78.50
2024-02-24T14:45:57.826Z,78.47
2024-02-24T14:48:25.609Z,78.52
2024-02-24T14:50:54.400Z,78.86
2024-02-24T14:53:22.102Z,79.01
2024-02-24T14:55:49.739Z,78.88
2024-02-24T14:58:17.319Z,78.79
2024-02-24T15:00:46.103Z,79.35
2024-02-24T15:03:13.726Z,79.55
2024-02-24T15:05:43.056Z,79.03
2024-02-24T15:08:10.855Z,79.30
2024-02-24T15:10:40.032Z,79.22
2024-02-24T15:13:07.663Z,78.89
2024-02-24T15:15:35.479Z,78.86
2024-02-24T15:18:06.042Z,79.23
2024-02-24T15:20:33.991Z,79.16
2024-02-24T15:23:02.040Z,79.03
2024-02-24T15:25:29.675Z,79.11
2024-02-24T15:27:57.373Z,79.47
2024-02-24T15:30:26.233Z,79.41
2024-02-24T15:32:59.495Z,79.23
2024-02-24T15:35:27.414Z,78.49
2024-02-24T15:38:02.875Z,78.29
2024-02-24T15:40:33.553Z,78.35
2024-02-24T15:43:02.606Z,78.99
2024-02-24T15:45:30.663Z,78.83
2024-02-24T15:47:58.260Z,78.84
2024-02-24T15:50:26.536Z,79.00
2024-02-24T15:52:54.332Z,78.36
2024-02-24T15:55:21.829Z,78.29
2024-02-24T15:57:49.499Z,78.26
2024-02-24T16:00:19.992Z,78.29
2024-02-24T16:02:47.722Z,78.58
2024-02-24T16:05:19.197Z,78.98
2024-02-24T16:07:49.140Z,78.93
2024-02-24T16:10:18.152Z,78.82
2024-02-24T16:12:46.180Z,78.65
2024-02-24T16:15:14.106Z,78.19
2024-02-24T16:17:41.833Z,78.11
2024-02-24T16:20:10.071Z,78.58
2024-02-24T16:22:37.716Z,78.65
2024-02-24T16:25:06.309Z,79.09
2024-02-24T16:27:33.876Z,79.40
2024-02-24T16:30:01.664Z,79.73
2024-02-24T16:32:29.538Z,79.59
2024-02-24T16:34:57.412Z,79.56
2024-02-24T16:37:25.143Z,79.96
2024-02-24T16:39:57.103Z,80.07
2024-02-24T16:42:24.885Z,80.02
2024-02-24T16:44:52.712Z,79.97
2024-02-24T16:47:20.653Z,79.95
2024-02-24T16:49:48.392Z,79.57
2024-02-24T16:52:16.014Z,79.69
2024-02-24T16:54:43.849Z,79.79
2024-02-24T16:57:11.777Z,79.78
2024-02-24T16:59:42.518Z,80.47
2024-02-24T17:02:11.047Z,80.32
2024-02-24T17:04:40.821Z,80.59
2024-02-24T17:07:09.300Z,80.65
2024-02-24T17:09:37.125Z,80.92
2024-02-24T17:12:05.116Z,81.07
2024-02-24T17:14:32.919Z,81.44
2024-02-24T17:17:00.552Z,81.35
2024-02-24T17:19:28.548Z,81.66
2024-02-24T17:21:56.242Z,81.53
2024-02-24T17:24:23.993Z,82.05
2024-02-24T17:26:55.801Z,81.99
2024-02-24T17:29:23.765Z,81.87
2024-02-24T17:31:51.468Z,81.85
2024-02-24T17:34:19.216Z,82.18
2024-02-24T17:36:50.026Z,82.26
2024-02-24T17:39:17.635Z,82.13
2024-02-24T17:41:45.453Z,82.22
2024-02-24T17:44:13.197Z,82.18
2024-02-24T17:46:40.951Z,82.23
2024-02-24T17:49:08.666Z,82.32
2024-02-24T17:51:36.283Z,82.18
2024-02-24T17:54:04.140Z,82.24
2024-02-24T17:56:33.864Z,82.36
2024-02-24T17:59:03.625Z,82.24
2024-02-24T18:01:31.154Z,82.46
2024-02-24T18:03:59.714Z,82.54
2024-02-24T18:06:27.778Z,82.68
2024-02-24T18:08:55.699Z,82.69
2024-02-24T18:11:23.882Z,83.09
2024-02-24T18:13:51.605Z,82.84
2024-02-24T18:16:19.264Z,83.06
2024-02-24T18:18:47.071Z,82.97
2024-02-24T18:21:21.380Z,83.19
2024-02-24T18:23:49.112Z,83.13
2024-02-24T18:26:16.772Z,83.11
2024-02-24T18:28:44.413Z,83.50
2024-02-24T18:31:11.960Z,83.51
2024-02-24T18:33:39.782Z,83.63
2024-02-24T18:36:08.620Z,83.83
2024-02-24T18:38:36.271Z,83.95
2024-02-24T18:41:04.079Z,84.53
2024-02-24T18:43:31.724Z,84.31
2024-02-24T18:45:59.451Z,84.54
2024-02-24T18:48:28.457Z,84.53
2024-02-24T18:50:56.316Z,84.62
2024-02-24T18:53:24.034Z,84.64
2024-02-24T18:55:51.845Z,84.60
2024-02-24T18:58:19.453Z,84.85
2024-02-24T19:00:47.055Z,84.78
2024-02-24T19:03:15.325Z,85.21
2024-02-24T19:05:43.409Z,84.90
2024-02-24T19:08:10.995Z,85.18
2024-02-24T19:10:38.762Z,85.09
2024-02-24T19:13:06.381Z,85.58
2024-02-24T19:15:34.006Z,85.41
2024-02-24T19:18:02.901Z,85.60
2024-02-24T19:20:31.134Z,85.60
2024-02-24T19:23:00.518Z,86.17
2024-02-24T19:25:28.275Z,85.90
2024-02-24T19:27:56.195Z,86.11
2024-02-24T19:30:23.864Z,86.18
2024-02-24T19:32:51.999Z,86.36
2024-02-24T19:35:19.733Z,86.20
2024-02-24T19:37:47.622Z,86.49
2024-02-24T19:40:15.597Z,86.38
2024-02-24T19:42:43.182Z,86.23
2024-02-24T19:45:15.587Z,86.19
2024-02-24T19:48:02.087Z,86.34
2024-02-24T19:50:29.926Z,86.39
2024-02-24T19:52:57.598Z,86.33
2024-02-24T19:55:27.185Z,85.96
2024-02-24T19:57:54.944Z,86.18
2024-02-24T20:00:22.652Z,86.13
2024-02-24T20:02:50.172Z,86.53
2024-02-24T20:05:20.113Z,86.42
2024-02-24T20:07:48.175Z,86.50
2024-02-24T20:10:15.920Z,86.61
2024-02-24T20:12:43.405Z,86.52
2024-02-24T20:15:11.696Z,86.77
2024-02-24T20:17:39.379Z,86.75
2024-02-24T20:20:08.366Z,86.80
2024-02-24T20:22:35.932Z,86.79
2024-02-24T20:25:03.758Z,87.05
2024-02-24T20:27:31.326Z,87.11
2024-02-24T20:29:58.971Z,87.13
2024-02-24T20:32:26.965Z,87.06
2024-02-24T20:34:54.653Z,87.19
2024-02-24T20:37:22.227Z,86.83
2024-02-24T20:39:50.186Z,87.01
2024-02-24T20:42:17.742Z,87.32
2024-02-24T20:44:45.289Z,87.28
2024-02-24T20:47:12.919Z,87.33
2024-02-24T20:49:40.383Z,87.36
2024-02-24T20:52:08.665Z,87.16
2024-02-24T20:54:39.799Z,87.29
2024-02-24T20:57:08.433Z,87.35
2024-02-24T20:59:36.076Z,87.18
2024-02-24T21:02:03.738Z,86.86
2024-02-24T21:04:31.309Z,87.36
2024-02-24T21:07:02.413Z,87.25
2024-02-24T21:09:30.546Z,87.18
2024-02-24T21:11:58.261Z,87.01
2024-02-24T21:14:25.934Z,87.17
2024-02-24T21:16:54.120Z,86.89
2024-02-24T21:19:21.725Z,86.76
2024-02-24T21:21:50.146Z,87.07
2024-02-24T21:24:18.336Z,87.08
2024-02-24T21:26:47.831Z,87.07
2024-02-24T21:29:16.407Z,86.88
2024-02-24T21:31:43.910Z,86.98
2024-02-24T21:34:11.708Z,86.99
2024-02-24T21:36:39.447Z,86.92
2024-02-24T21:39:07.782Z,86.91
2024-02-24T21:41:38.210Z,87.07
2024-02-24T21:44:07.929Z,86.86
2024-02-24T21:46:35.427Z,86.81
2024-02-24T21:49:03.377Z,86.89
2024-02-24T21:51:55.421Z,86.87
2024-02-24T21:54:23.657Z,86.95
2024-02-24T21:56:55.499Z,86.54
2024-02-24T21:59:25.363Z,86.74
2024-02-24T22:01:56.101Z,87.01
2024-02-24T22:04:25.144Z,86.91
2024-02-24T22:06:54.348Z,87.00
2024-02-24T22:09:22.134Z,87.13
2024-02-24T22:11:49.943Z,87.04
2024-02-24T22:14:22.583Z,87.13
2024-02-24T22:16:50.500Z,87.30
2024-02-24T22:19:18.618Z,87.27
2024-02-24T22:21:46.752Z,87.45
2024-02-24T22:24:14.347Z,87.36
2024-02-24T22:26:46.914Z,87.57
2024-02-24T22:29:16.047Z,87.66
2024-02-24T22:31:46.159Z,87.52
2024-02-24T22:34:14.145Z,87.61
2024-02-24T22:36:43.251Z,87.58
2024-02-24T22:39:10.878Z,87.68
2024-02-24T22:41:38.604Z,87.55
2024-02-24T22:44:12.089Z,87.72
2024-02-24T22:46:40.166Z,87.71
2024-02-24T22:49:07.837Z,87.74
2024-02-24T22:51:35.848Z,87.92
2024-02-24T22:54:03.692Z,87.83
2024-02-24T22:56:31.515Z,88.01
2024-02-24T22:59:02.137Z,87.92
2024-02-24T23:01:31.876Z,88.38
2024-02-24T23:04:02.041Z,88.06
2024-02-24T23:06:30.982Z,88.32
2024-02-24T23:08:58.622Z,88.20
2024-02-24T23:11:33.047Z,88.10
2024-02-24T23:14:09.053Z,88.16
2024-02-24T23:16:36.839Z,88.24
2024-02-24T23:19:04.675Z,88.03
2024-02-24T23:21:36.318Z,88.11
2024-02-24T23:24:07.238Z,88.48
2024-02-24T23:26:35.570Z,88.57
2024-02-24T23:29:04.027Z,88.61
2024-02-24T23:31:31.871Z,88.94
2024-02-24T23:33:59.786Z,89.04
2024-02-24T23:36:28.616Z,89.24
2024-02-24T23:38:56.265Z,90.12
2024-02-24T23:41:25.440Z,90.14
2024-02-24T23:43:53.001Z,90.43
2024-02-24T23:46:20.528Z,90.92
2024-02-24T23:48:48.544Z,90.89
2024-02-24T23:51:16.192Z,91.24
2024-02-24T23:53:45.072Z,91.30
2024-02-24T23:56:24.146Z,91.38
2024-02-24T23:58:52.520Z,91.52
